createdAt,value
2022-11-03T00:01:14.664Z,4.63
2022-11-03T00:03:41.348Z,5.35
2022-11-03T00:06:08.281Z,5.53
2022-11-03T00:08:38.272Z,5.47
2022-11-03T00:11:10.251Z,5.22
2022-11-03T00:13:38.282Z,5.38
2022-11-03T00:16:05.711Z,5.15
2022-11-03T00:18:32.419Z,5.32
2022-11-03T00:21:01.969Z,6.20
2022-11-03T00:23:30.801Z,6.57
2022-11-03T00:26:12.378Z,5.80
2022-11-03T00:28:40.911Z,5.85
2022-11-03T00:31:11.153Z,5.75
2022-11-03T00:33:39.408Z,6.38
2022-11-03T00:36:07.161Z,4.25
2022-11-03T00:38:34.209Z,4.28
2022-11-03T00:41:03.594Z,4.28
2022-11-03T00:43:36.755Z,5.38
2022-11-03T00:46:05.411Z,4.72
2022-11-03T00:48:33.787Z,5.18
2022-11-03T00:51:11.727Z,4.65
2022-11-03T00:53:41.118Z,4.50
2022-11-03T00:56:12.087Z,4.72
2022-11-03T00:58:38.733Z,4.65
2022-11-03T01:01:08.269Z,4.53
2022-11-03T01:03:37.817Z,5.13
2022-11-03T01:06:23.063Z,4.68
2022-11-03T01:08:49.722Z,3.97
2022-11-03T01:11:34.802Z,4.47
2022-11-03T01:14:01.537Z,4.90
2022-11-03T01:16:29.502Z,5.55
2022-11-03T01:18:56.579Z,4.38
2022-11-03T01:21:23.911Z,4.85
2022-11-03T01:23:51.564Z,3.95
2022-11-03T01:26:18.299Z,5.38
2022-11-03T01:28:46.680Z,4.82
2022-11-03T01:31:17.939Z,4.82
2022-11-03T01:33:46.121Z,4.20
2022-11-03T01:36:14.510Z,4.00
2022-11-03T01:38:42.855Z,4.28
2022-11-03T01:41:16.611Z,3.22
2022-11-03T01:43:44.003Z,3.53
2022-11-03T01:46:11.672Z,3.47
2022-11-03T01:48:45.573Z,4.53
2022-11-03T01:51:16.386Z,3.55
2022-11-03T01:53:47.447Z,4.13
2022-11-03T01:56:16.692Z,3.75
2022-11-03T01:58:49.397Z,3.35
2022-11-03T02:01:16.844Z,4.07
2022-11-03T02:03:51.313Z,3.70
2022-11-03T02:06:23.363Z,4.07
2022-11-03T02:08:57.003Z,4.07
2022-11-03T02:11:39.066Z,3.63
2022-11-03T02:14:05.658Z,4.40
2022-11-03T02:16:33.205Z,4.00
2022-11-03T02:19:02.244Z,4.15
2022-11-03T02:21:39.993Z,3.55
2022-11-03T02:24:06.582Z,3.88
2022-11-03T02:26:33.285Z,3.75
2022-11-03T02:28:59.957Z,3.75
2022-11-03T02:31:36.723Z,3.58
2022-11-03T02:34:04.306Z,3.65
2022-11-03T02:36:56.221Z,2.67
2022-11-03T02:39:34.835Z,2.95
2022-11-03T02:42:03.711Z,3.20
2022-11-03T02:44:33.360Z,3.53
2022-11-03T02:47:04.006Z,3.20
2022-11-03T02:49:30.697Z,3.47
2022-11-03T02:52:05.682Z,3.00
2022-11-03T02:54:38.606Z,3.13
2022-11-03T02:57:15.912Z,3.28
2022-11-03T02:59:56.093Z,3.08
2022-11-03T03:02:34.278Z,3.40
2022-11-03T03:05:03.977Z,3.10
2022-11-03T03:07:37.246Z,3.78
2022-11-03T03:10:03.919Z,4.07
2022-11-03T03:12:33.843Z,3.38
2022-11-03T03:15:02.570Z,3.92
2022-11-03T03:17:44.300Z,3.70
2022-11-03T03:20:28.535Z,3.40
2022-11-03T03:23:05.101Z,5.75
2022-11-03T03:25:41.620Z,3.53
2022-11-03T03:28:15.820Z,3.42
2022-11-03T03:30:48.923Z,3.85
2022-11-03T03:33:17.933Z,4.15
2022-11-03T03:35:48.924Z,4.00
2022-11-03T03:38:23.568Z,5.13
2022-11-03T03:40:54.950Z,4.35
2022-11-03T03:43:28.177Z,4.22
2022-11-03T03:45:58.739Z,3.65
2022-11-03T03:48:25.342Z,4.07
2022-11-03T03:50:52.742Z,4.65
2022-11-03T03:53:19.883Z,3.83
2022-11-03T03:55:50.401Z,4.10
2022-11-03T03:58:17.301Z,4.10
2022-11-03T04:00:44.744Z,3.92
2022-11-03T04:03:17.705Z,3.67
2022-11-03T04:05:45.387Z,3.90
2022-11-03T04:08:13.505Z,3.83
2022-11-03T04:10:41.289Z,3.83
2022-11-03T04:13:24.019Z,4.07
2022-11-03T04:15:52.080Z,4.68
2022-11-03T04:18:35.582Z,3.78
2022-11-03T04:21:17.634Z,3.70
2022-11-03T04:23:44.447Z,3.97
2022-11-03T04:26:15.283Z,4.10
2022-11-03T04:28:42.525Z,4.15
2022-11-03T04:31:18.314Z,3.63
2022-11-03T04:33:45.993Z,3.90
2022-11-03T04:36:18.182Z,3.50
2022-11-03T04:38:45.573Z,3.85
2022-11-03T04:41:18.039Z,3.53
2022-11-03T04:43:46.617Z,3.63
2022-11-03T04:46:16.975Z,3.85
2022-11-03T04:48:44.318Z,3.90
2022-11-03T04:51:16.353Z,3.92
2022-11-03T04:53:54.363Z,3.70
2022-11-03T04:56:24.472Z,3.40
2022-11-03T04:58:52.402Z,4.05
2022-11-03T05:01:24.261Z,3.58
2022-11-03T05:03:54.353Z,3.47
2022-11-03T05:06:26.877Z,3.25
2022-11-03T05:08:58.407Z,3.25
2022-11-03T05:11:34.810Z,3.20
2022-11-03T05:16:30.639Z,3.25
2022-11-03T05:18:57.595Z,3.47
2022-11-03T05:21:26.741Z,3.90
2022-11-03T05:23:58.213Z,3.53
2022-11-03T05:26:30.121Z,3.60
2022-11-03T05:29:00.029Z,3.65
2022-11-03T05:31:29.682Z,4.30
2022-11-03T05:34:00.045Z,4.28
2022-11-03T05:36:29.948Z,3.95
2022-11-03T05:39:06.039Z,4.55
2022-11-03T05:41:32.746Z,3.85
2022-11-03T05:44:02.856Z,3.05
2022-11-03T05:46:31.694Z,3.30
2022-11-03T05:49:01.064Z,3.17
2022-11-03T05:51:34.328Z,3.42
2022-11-03T05:54:04.420Z,5.20
2022-11-03T05:56:32.957Z,5.03
2022-11-03T05:59:00.755Z,3.65
2022-11-03T06:01:34.432Z,4.28
2022-11-03T06:04:15.877Z,4.90
2022-11-03T06:06:42.647Z,6.85
2022-11-03T06:09:14.049Z,14.90
2022-11-03T06:11:41.723Z,16.35
2022-11-03T06:14:23.961Z,16.92
2022-11-03T06:17:02.119Z,15.15
2022-11-03T06:19:35.698Z,10.25
2022-11-03T06:22:15.523Z,9.70
2022-11-03T06:24:42.462Z,7.43
2022-11-03T06:27:15.191Z,9.32
2022-11-03T06:29:46.841Z,7.55
2022-11-03T06:32:13.789Z,7.07
2022-11-03T06:34:46.069Z,6.05
2022-11-03T06:37:25.814Z,5.65
2022-11-03T06:39:59.977Z,5.50
2022-11-03T06:42:31.931Z,5.20
2022-11-03T06:44:59.142Z,4.20
2022-11-03T06:47:27.887Z,4.60
2022-11-03T06:49:58.240Z,4.10
2022-11-03T06:52:45.811Z,4.25
2022-11-03T06:55:15.710Z,4.93
2022-11-03T06:57:47.195Z,5.40
2022-11-03T07:00:33.095Z,5.50
2022-11-03T07:03:09.314Z,5.43
2022-11-03T07:05:36.892Z,5.72
2022-11-03T07:08:17.353Z,5.95
2022-11-03T07:10:44.210Z,5.55
2022-11-03T07:13:15.785Z,5.78
2022-11-03T07:15:44.743Z,6.15
2022-11-03T07:18:29.428Z,6.75
2022-11-03T07:20:57.889Z,5.75
2022-11-03T07:23:29.306Z,6.88
2022-11-03T07:26:00.406Z,7.28
2022-11-03T07:28:33.232Z,6.63
2022-11-03T07:31:16.558Z,6.72
2022-11-03T07:33:44.034Z,6.70
2022-11-03T07:36:16.831Z,7.18
2022-11-03T07:38:46.217Z,7.00
2022-11-03T07:41:19.567Z,6.85
2022-11-03T07:43:58.033Z,7.07
2022-11-03T07:46:26.361Z,6.88
2022-11-03T07:49:03.252Z,7.20
2022-11-03T07:51:33.589Z,6.13
2022-11-03T07:54:16.779Z,6.38
2022-11-03T07:56:47.390Z,5.78
2022-11-03T07:59:19.008Z,5.40
2022-11-03T08:01:49.353Z,5.63
2022-11-03T08:04:21.665Z,5.65
2022-11-03T08:06:48.564Z,5.80
2022-11-03T08:09:15.894Z,4.65
2022-11-03T08:11:42.545Z,4.32
2022-11-03T08:14:10.379Z,3.95
2022-11-03T08:16:37.544Z,3.55
2022-11-03T08:19:04.191Z,4.50
2022-11-03T08:21:30.892Z,3.58
2022-11-03T08:23:57.562Z,2.90
2022-11-03T08:26:24.376Z,2.90
2022-11-03T08:28:50.974Z,3.20
2022-11-03T08:31:17.640Z,2.60
2022-11-03T08:33:44.446Z,2.63
2022-11-03T08:36:11.833Z,3.15
2022-11-03T08:38:41.710Z,2.80
2022-11-03T08:41:08.444Z,2.95
2022-11-03T08:43:35.132Z,2.97
2022-11-03T08:46:08.404Z,3.05
2022-11-03T08:48:40.274Z,2.60
2022-11-03T08:51:08.453Z,2.88
2022-11-03T08:53:35.425Z,2.75
2022-11-03T08:56:02.148Z,2.83
2022-11-03T08:58:28.951Z,2.70
2022-11-03T09:00:55.535Z,2.60
2022-11-03T09:03:22.362Z,2.97
2022-11-03T09:05:49.107Z,2.80
2022-11-03T09:11:02.414Z,2.17
2022-11-03T09:13:29.002Z,2.50
2022-11-03T09:15:55.619Z,2.45
2022-11-03T09:18:22.769Z,2.53
2022-11-03T09:20:49.422Z,2.97
2022-11-03T09:23:16.019Z,2.47
2022-11-03T09:25:42.650Z,2.40
2022-11-03T09:28:09.685Z,2.83
2022-11-03T09:30:36.701Z,2.40
2022-11-03T09:33:03.949Z,2.78
2022-11-03T09:35:30.658Z,2.47
2022-11-03T09:37:57.687Z,2.67
2022-11-03T09:40:25.391Z,2.80
2022-11-03T09:42:52.369Z,2.72
2022-11-03T09:45:18.975Z,3.00
2022-11-03T09:47:47.309Z,3.03
2022-11-03T09:50:17.177Z,2.80
2022-11-03T09:52:48.761Z,2.80
2022-11-03T09:55:23.206Z,2.67
2022-11-03T09:57:52.934Z,2.90
2022-11-03T10:00:22.462Z,2.55
2022-11-03T10:02:49.790Z,3.00
2022-11-03T10:05:22.819Z,2.47
2022-11-03T10:07:50.629Z,2.75
2022-11-03T10:10:19.819Z,2.65
2022-11-03T10:12:49.007Z,3.33
2022-11-03T10:15:17.266Z,3.50
2022-11-03T10:17:45.258Z,3.00
2022-11-03T10:20:14.643Z,2.70
2022-11-03T10:22:43.520Z,2.40
2022-11-03T10:25:33.479Z,3.03
2022-11-03T10:28:15.532Z,2.45
2022-11-03T10:31:10.078Z,2.60
2022-11-03T10:33:38.813Z,3.13
2022-11-03T10:36:20.703Z,2.83
2022-11-03T10:38:48.141Z,3.13
2022-11-03T10:41:18.236Z,2.63
2022-11-03T10:44:01.685Z,3.40
2022-11-03T10:46:49.261Z,2.85
2022-11-03T10:49:18.512Z,2.80
2022-11-03T10:51:48.311Z,3.22
2022-11-03T10:54:17.654Z,3.15
2022-11-03T10:56:46.200Z,2.90
2022-11-03T10:59:19.072Z,2.95
2022-11-03T11:01:46.307Z,3.17
2022-11-03T11:04:17.497Z,3.63
2022-11-03T11:06:44.825Z,3.20
2022-11-03T11:09:14.540Z,3.10
2022-11-03T11:12:01.032Z,2.30
2022-11-03T11:14:28.292Z,3.38
2022-11-03T11:16:57.106Z,3.22
2022-11-03T11:19:25.788Z,3.40
2022-11-03T11:21:53.749Z,3.10
2022-11-03T11:24:55.528Z,3.88
2022-11-03T11:27:47.175Z,3.00
2022-11-03T11:30:53.650Z,3.17
2022-11-03T11:33:26.057Z,3.55
2022-11-03T11:35:58.762Z,2.65
2022-11-03T11:38:56.145Z,3.13
2022-11-03T11:41:58.029Z,3.78
2022-11-03T11:44:43.916Z,3.55
2022-11-03T11:47:28.221Z,3.30
2022-11-03T11:50:11.518Z,3.53
2022-11-03T11:52:43.332Z,3.53
2022-11-03T11:55:25.215Z,3.63
2022-11-03T11:57:53.255Z,3.33
2022-11-03T12:00:24.785Z,3.08
2022-11-03T12:02:53.310Z,3.50
2022-11-03T12:05:22.878Z,2.90
2022-11-03T12:07:49.938Z,3.35
2022-11-03T12:10:20.144Z,3.63
2022-11-03T12:12:46.936Z,3.53
2022-11-03T12:15:44.210Z,2.95
2022-11-03T12:18:32.800Z,3.50
2022-11-03T12:21:04.016Z,3.05
2022-11-03T12:23:46.535Z,3.78
2022-11-03T12:26:19.272Z,3.33
2022-11-03T12:28:45.925Z,3.15
2022-11-03T12:31:12.788Z,4.65
2022-11-03T12:33:39.648Z,3.72
2022-11-03T12:36:07.185Z,4.07
2022-11-03T12:38:33.901Z,3.78
2022-11-03T12:41:15.680Z,3.08
2022-11-03T12:43:42.332Z,4.05
2022-11-03T12:46:08.999Z,2.92
2022-11-03T12:48:35.563Z,3.60
2022-11-03T12:51:02.177Z,3.15
2022-11-03T12:53:28.771Z,3.33
2022-11-03T12:55:55.391Z,3.45
2022-11-03T12:58:22.026Z,3.33
2022-11-03T13:00:53.828Z,3.90
2022-11-03T13:03:21.857Z,3.75
2022-11-03T13:05:49.283Z,3.20
2022-11-03T13:08:15.913Z,3.67
2022-11-03T13:10:42.570Z,3.63
2022-11-03T13:13:09.671Z,3.78
2022-11-03T13:15:37.581Z,3.60
2022-11-03T13:18:14.061Z,3.38
2022-11-03T13:20:43.002Z,3.78
2022-11-03T13:23:09.858Z,3.92
2022-11-03T13:25:39.731Z,3.92
2022-11-03T13:28:06.416Z,3.53
2022-11-03T13:30:33.779Z,3.42
2022-11-03T13:33:00.415Z,3.45
2022-11-03T13:35:28.492Z,3.28
2022-11-03T13:37:55.200Z,3.67
2022-11-03T13:45:35.557Z,3.45
2022-11-03T14:01:24.102Z,3.53
2022-11-03T14:09:04.091Z,3.33
2022-11-03T14:11:45.940Z,3.92
2022-11-03T14:14:12.541Z,4.38
2022-11-03T14:16:39.233Z,3.45
2022-11-03T14:19:08.909Z,3.78
2022-11-03T14:21:37.521Z,3.50
2022-11-03T14:24:05.842Z,4.07
2022-11-03T14:26:42.221Z,4.10
2022-11-03T14:29:10.272Z,3.17
2022-11-03T14:31:36.995Z,3.58
2022-11-03T14:34:03.659Z,3.10
2022-11-03T14:36:30.280Z,3.67
2022-11-03T14:38:56.862Z,3.50
2022-11-03T14:41:38.746Z,4.07
2022-11-03T14:44:06.152Z,4.07
2022-11-03T14:46:32.945Z,4.45
2022-11-03T14:49:01.726Z,3.67
2022-11-03T14:51:29.211Z,3.83
2022-11-03T14:53:57.579Z,3.47
2022-11-03T14:56:24.977Z,3.50
2022-11-03T14:58:52.046Z,3.75
2022-11-03T15:01:21.001Z,3.22
2022-11-03T15:03:47.734Z,3.90
2022-11-03T15:06:14.484Z,3.55
2022-11-03T15:08:41.239Z,3.40
2022-11-03T15:11:09.969Z,3.85
2022-11-03T15:13:44.000Z,3.85
2022-11-03T15:16:13.823Z,4.43
2022-11-03T15:18:41.436Z,5.28
2022-11-03T15:21:08.068Z,4.80
2022-11-03T15:26:21.245Z,3.92
2022-11-03T15:28:47.888Z,4.38
2022-11-03T15:31:14.905Z,4.00
2022-11-03T15:33:44.733Z,3.90
2022-11-03T15:36:11.913Z,4.03
2022-11-03T15:38:38.712Z,4.45
2022-11-03T15:41:20.928Z,5.05
2022-11-03T15:43:49.439Z,4.00
2022-11-03T15:46:20.854Z,4.10
2022-11-03T15:48:49.129Z,4.20
2022-11-03T15:51:15.993Z,3.90
2022-11-03T15:53:43.850Z,4.15
2022-11-03T15:56:10.960Z,4.38
2022-11-03T15:58:38.158Z,3.88
2022-11-03T16:01:05.435Z,4.13
2022-11-03T16:03:32.680Z,4.38
2022-11-03T16:05:59.641Z,4.22
2022-11-03T16:08:26.579Z,3.50
2022-11-03T16:10:57.695Z,3.92
2022-11-03T16:13:25.608Z,3.75
2022-11-03T16:15:54.540Z,4.63
2022-11-03T16:18:21.421Z,3.65
2022-11-03T16:20:48.215Z,4.25
2022-11-03T16:23:14.863Z,5.05
2022-11-03T16:25:41.610Z,4.18
2022-11-03T16:28:08.500Z,4.85
2022-11-03T16:30:35.493Z,5.05
2022-11-03T16:33:02.214Z,4.95
2022-11-03T16:35:29.760Z,6.18
2022-11-03T16:37:56.473Z,4.53
2022-11-03T16:40:23.720Z,5.45
2022-11-03T16:42:50.440Z,5.13
2022-11-03T16:45:22.405Z,5.28
2022-11-03T16:47:50.817Z,5.53
2022-11-03T16:50:18.725Z,4.72
2022-11-03T16:52:47.255Z,4.70
2022-11-03T16:55:15.521Z,5.00
2022-11-03T16:57:42.591Z,5.20
2022-11-03T17:00:13.300Z,5.07
2022-11-03T17:02:40.012Z,3.97
2022-11-03T17:05:07.342Z,4.70
2022-11-03T17:07:33.968Z,4.22
2022-11-03T17:10:00.813Z,4.13
2022-11-03T17:12:27.455Z,4.50
2022-11-03T17:14:56.659Z,4.03
2022-11-03T17:17:23.698Z,4.70
2022-11-03T17:19:50.617Z,4.68
2022-11-03T17:22:17.258Z,4.25
2022-11-03T17:24:44.102Z,4.30
2022-11-03T17:27:28.516Z,4.30
2022-11-03T17:30:00.292Z,4.53
2022-11-03T17:32:31.604Z,4.18
2022-11-03T17:34:58.969Z,4.18
2022-11-03T17:37:26.758Z,4.82
2022-11-03T17:39:54.155Z,4.10
2022-11-03T17:42:24.907Z,4.47
2022-11-03T17:44:55.507Z,3.97
2022-11-03T17:47:24.146Z,4.05
2022-11-03T17:49:51.168Z,3.72
2022-11-03T17:52:25.128Z,4.30
2022-11-03T17:54:57.528Z,3.83
2022-11-03T17:57:25.723Z,4.57
2022-11-03T17:59:55.379Z,4.68
2022-11-03T18:02:25.755Z,4.63
2022-11-03T18:05:03.159Z,4.38
2022-11-03T18:07:30.042Z,4.95
2022-11-03T18:09:56.693Z,4.60
2022-11-03T18:12:44.867Z,5.32
2022-11-03T18:15:15.795Z,4.85
2022-11-03T18:17:42.517Z,5.30
2022-11-03T18:20:21.996Z,5.80
2022-11-03T18:22:48.664Z,5.95
2022-11-03T18:25:17.681Z,5.32
2022-11-03T18:27:44.753Z,6.18
2022-11-03T18:30:13.767Z,5.60
2022-11-03T18:32:41.368Z,6.00
2022-11-03T18:35:17.162Z,6.07
2022-11-03T18:37:45.421Z,5.20
2022-11-03T18:40:13.787Z,6.35
2022-11-03T18:42:41.007Z,5.28
2022-11-03T18:45:14.017Z,5.32
2022-11-03T18:47:40.800Z,6.20
2022-11-03T18:50:08.651Z,6.18
2022-11-03T18:52:40.764Z,6.15
2022-11-03T18:55:12.130Z,6.18
2022-11-03T18:57:39.714Z,6.72
2022-11-03T19:00:18.897Z,6.13
2022-11-03T19:02:47.491Z,6.15
2022-11-03T19:05:15.941Z,5.07
2022-11-03T19:07:45.369Z,4.70
2022-11-03T19:10:16.009Z,4.53
2022-11-03T19:12:44.410Z,4.57
2022-11-03T19:15:26.784Z,4.93
2022-11-03T19:17:57.045Z,4.22
2022-11-03T19:20:25.472Z,4.50
2022-11-03T19:22:52.811Z,3.85
2022-11-03T19:25:22.673Z,3.92
2022-11-03T19:27:49.665Z,4.15
2022-11-03T19:30:18.695Z,3.88
2022-11-03T19:32:48.904Z,4.45
2022-11-03T19:35:30.033Z,4.30
2022-11-03T19:38:10.331Z,4.00
2022-11-03T19:40:39.158Z,3.78
2022-11-03T19:43:09.548Z,3.72
2022-11-03T19:45:36.215Z,3.85
2022-11-03T19:48:23.803Z,3.83
2022-11-03T19:50:51.720Z,3.30
2022-11-03T19:53:22.208Z,3.78
2022-11-03T19:55:49.765Z,3.65
2022-11-03T19:58:19.935Z,3.72
2022-11-03T20:00:47.989Z,3.13
2022-11-03T20:03:15.034Z,3.50
2022-11-03T20:05:48.951Z,3.63
2022-11-03T20:08:19.304Z,3.90
2022-11-03T20:10:48.207Z,3.67
2022-11-03T20:13:17.645Z,3.65
2022-11-03T20:15:44.322Z,3.92
2022-11-03T20:18:13.066Z,4.00
2022-11-03T20:20:41.440Z,3.60
2022-11-03T20:23:25.692Z,3.75
2022-11-03T20:25:52.663Z,3.22
2022-11-03T20:28:24.965Z,3.40
2022-11-03T20:30:52.813Z,3.45
2022-11-03T20:33:21.133Z,3.53
2022-11-03T20:35:49.909Z,3.72
2022-11-03T20:38:19.361Z,3.40
2022-11-03T20:40:48.010Z,3.55
2022-11-03T20:43:26.543Z,3.72
2022-11-03T20:45:54.742Z,3.60
2022-11-03T20:48:21.951Z,3.88
2022-11-03T20:50:48.838Z,3.72
2022-11-03T20:53:18.260Z,4.00
2022-11-03T20:55:46.151Z,3.30
2022-11-03T20:58:17.827Z,3.92
2022-11-03T21:00:46.384Z,3.30
2022-11-03T21:03:37.617Z,3.10
2022-11-03T21:06:16.399Z,2.85
2022-11-03T21:08:44.740Z,3.08
2022-11-03T21:11:30.711Z,3.33
2022-11-03T21:14:01.302Z,4.20
2022-11-03T21:16:45.235Z,3.80
2022-11-03T21:19:30.496Z,3.40
2022-11-03T21:21:57.123Z,3.50
2022-11-03T21:24:23.762Z,3.35
2022-11-03T21:26:50.461Z,3.30
2022-11-03T21:29:32.969Z,3.03
2022-11-03T21:32:03.884Z,3.08
2022-11-03T21:34:30.608Z,3.28
2022-11-03T21:36:57.242Z,3.00
2022-11-03T21:39:23.901Z,3.13
2022-11-03T21:42:06.002Z,2.97
2022-11-03T21:44:32.707Z,3.10
2022-11-03T21:46:59.265Z,3.40
2022-11-03T21:49:41.174Z,3.20
2022-11-03T21:52:08.202Z,3.63
2022-11-03T21:54:34.848Z,3.17
2022-11-03T21:57:01.489Z,3.03
2022-11-03T21:59:28.118Z,3.42
2022-11-03T22:01:55.296Z,4.03
2022-11-03T22:04:23.116Z,3.22
2022-11-03T22:06:50.495Z,3.47
2022-11-03T22:09:17.783Z,3.08
2022-11-03T22:11:44.492Z,3.55
2022-11-03T22:14:12.821Z,3.58
2022-11-03T22:16:40.894Z,3.33
2022-11-03T22:19:28.787Z,3.83
2022-11-03T22:22:10.882Z,4.25
2022-11-03T22:24:58.187Z,4.28
2022-11-03T22:27:25.862Z,5.07
2022-11-03T22:30:08.043Z,6.00
2022-11-03T22:32:35.551Z,4.82
2022-11-03T22:35:18.057Z,5.10
2022-11-03T22:37:44.822Z,5.07
2022-11-03T22:40:26.828Z,5.40
2022-11-03T22:43:08.981Z,5.75
2022-11-03T22:45:53.238Z,5.53
2022-11-03T22:48:23.226Z,5.63
2022-11-03T22:51:07.667Z,5.03
2022-11-03T22:53:51.187Z,4.70
2022-11-03T22:56:18.853Z,5.25
2022-11-03T22:58:45.655Z,5.00
2022-11-03T23:01:16.762Z,5.13
2022-11-03T23:03:44.974Z,4.63
2022-11-03T23:06:14.766Z,5.50
2022-11-03T23:08:42.835Z,5.35
2022-11-03T23:11:15.988Z,5.07
2022-11-03T23:13:44.548Z,5.32
2022-11-03T23:16:16.480Z,5.50
2022-11-03T23:18:58.758Z,5.63
2022-11-03T23:21:25.882Z,5.70
2022-11-03T23:24:07.734Z,5.70
2022-11-03T23:26:34.545Z,5.15
2022-11-03T23:29:01.216Z,5.45
2022-11-03T23:31:27.842Z,5.28
2022-11-03T23:33:55.067Z,6.03
2022-11-03T23:36:26.049Z,5.78
2022-11-03T23:38:52.685Z,5.65
2022-11-03T23:41:19.952Z,5.43
2022-11-03T23:43:47.190Z,5.18
2022-11-03T23:46:31.482Z,4.80
2022-11-03T23:49:01.359Z,5.15
2022-11-03T23:51:30.116Z,4.47
2022-11-03T23:53:58.404Z,4.72
2022-11-03T23:56:43.295Z,4.88
2022-11-03T23:59:11.157Z,5.53
